createdAt,value
2022-12-02T11:36:14.981Z,24.13
2022-12-02T11:38:47.453Z,23.50
2022-12-02T11:41:16.437Z,23.73
2022-12-02T11:43:56.433Z,26.27
2022-12-02T11:46:39.585Z,24.53
2022-12-02T11:49:22.876Z,23.93
2022-12-02T11:51:52.334Z,25.53
2022-12-02T11:54:20.489Z,25.87
2022-12-02T11:56:48.554Z,25.73
2022-12-02T11:59:26.046Z,25.57
2022-12-02T12:02:08.359Z,24.23
2022-12-02T12:04:36.300Z,24.97
2022-12-02T12:07:05.494Z,23.10
2022-12-02T12:09:33.572Z,24.50
2022-12-02T12:12:18.690Z,23.80
2022-12-02T12:14:57.951Z,23.50
2022-12-02T12:17:46.765Z,23.60
2022-12-02T12:20:46.235Z,24.90
2022-12-02T12:23:40.223Z,24.57
2022-12-02T12:26:09.260Z,25.00
2022-12-02T12:28:39.097Z,23.53
2022-12-02T12:31:08.399Z,24.67
2022-12-02T12:33:36.398Z,24.17
2022-12-02T12:36:04.303Z,24.80
2022-12-02T12:38:32.225Z,24.30
2022-12-02T12:41:01.481Z,23.53
2022-12-02T12:43:29.372Z,23.47
2022-12-02T12:45:57.379Z,24.67
2022-12-02T12:48:25.305Z,22.53
2022-12-02T12:50:53.268Z,26.47
2022-12-02T12:53:21.131Z,24.73
2022-12-02T12:55:49.528Z,24.97
2022-12-02T12:58:19.194Z,23.37
2022-12-02T13:00:46.984Z,22.10
2022-12-02T13:03:14.920Z,21.90
2022-12-02T13:05:42.828Z,23.60
2022-12-02T13:08:10.821Z,22.80
2022-12-02T13:10:38.737Z,22.47
2022-12-02T13:13:06.779Z,23.87
2022-12-02T13:15:36.630Z,22.83
2022-12-02T13:18:04.730Z,21.63
2022-12-02T13:20:32.724Z,24.03
2022-12-02T13:23:00.690Z,21.13
2022-12-02T13:25:28.535Z,23.33
2022-12-02T13:27:56.389Z,23.10
2022-12-02T13:30:24.730Z,23.27
2022-12-02T13:32:54.706Z,23.37
2022-12-02T13:35:23.084Z,24.93
2022-12-02T13:37:51.116Z,31.03
2022-12-02T13:40:19.980Z,27.07
2022-12-02T13:42:47.893Z,24.23
2022-12-02T13:45:15.820Z,24.77
2022-12-02T13:47:43.678Z,24.23
2022-12-02T13:50:13.340Z,26.40
2022-12-02T13:52:41.212Z,26.10
2022-12-02T13:55:10.041Z,27.53
2022-12-02T13:57:37.882Z,28.70
2022-12-02T14:00:07.101Z,26.20
2022-12-02T14:02:35.028Z,26.43
2022-12-02T14:05:07.729Z,26.53
2022-12-02T14:07:37.664Z,28.40
2022-12-02T14:10:06.916Z,29.10
2022-12-02T14:12:34.862Z,27.23
2022-12-02T14:15:02.863Z,28.03
2022-12-02T14:17:30.722Z,28.90
2022-12-02T14:19:58.596Z,29.80
2022-12-02T14:22:26.515Z,33.17
2022-12-02T14:24:56.555Z,34.67
2022-12-02T14:27:24.438Z,26.53
2022-12-02T14:29:52.334Z,27.67
2022-12-02T14:32:20.182Z,26.30
2022-12-02T14:34:48.059Z,26.33
2022-12-02T14:37:16.069Z,25.90
2022-12-02T14:39:43.964Z,28.60
2022-12-02T14:42:13.299Z,28.80
2022-12-02T14:44:41.172Z,27.07
2022-12-02T14:47:09.044Z,28.93
2022-12-02T14:49:47.653Z,26.83
2022-12-02T14:52:15.626Z,27.23
2022-12-02T14:54:43.523Z,25.93
2022-12-02T14:57:14.280Z,25.83
2022-12-02T14:59:43.766Z,25.63
2022-12-02T15:02:14.163Z,25.37
2022-12-02T15:04:42.269Z,26.83
2022-12-02T15:07:10.164Z,25.77
2022-12-02T15:09:38.062Z,27.10
2022-12-02T15:12:06.685Z,27.47
2022-12-02T15:14:34.586Z,28.17
2022-12-02T15:17:03.930Z,28.97
2022-12-02T15:19:31.901Z,32.93
2022-12-02T15:21:59.761Z,32.13
2022-12-02T15:24:27.626Z,32.33
2022-12-02T15:26:56.037Z,32.70
2022-12-02T15:29:24.376Z,36.77
2022-12-02T15:31:52.388Z,35.13
2022-12-02T15:34:21.825Z,35.70
2022-12-02T15:36:49.704Z,34.83
2022-12-02T15:39:17.568Z,33.37
2022-12-02T15:41:45.445Z,33.77
2022-12-02T15:44:13.369Z,32.67
2022-12-02T15:46:41.928Z,32.20
2022-12-02T15:49:09.891Z,31.10
2022-12-02T15:51:39.181Z,32.50
2022-12-02T15:54:07.107Z,29.33
2022-12-02T15:56:35.073Z,32.87
2022-12-02T15:59:03.651Z,32.23
2022-12-02T16:01:32.104Z,30.60
2022-12-02T16:04:00.222Z,31.47
2022-12-02T16:06:28.101Z,31.90
2022-12-02T16:08:57.323Z,30.43
2022-12-02T16:11:25.253Z,26.77
2022-12-02T16:13:53.595Z,26.37
2022-12-02T16:16:21.973Z,27.40
2022-12-02T16:18:50.075Z,29.33
2022-12-02T16:21:18.862Z,27.67
2022-12-02T16:23:46.712Z,28.23
2022-12-02T16:26:15.938Z,29.07
2022-12-02T16:28:45.901Z,27.63
